KITR

Kit Carson County Airport

Burlington, Colorado, USA
METAR KITR 141253Z AUTO 04006KT 5SM BR OVC002 16/15 A3006 RMK AO2 SLP132 T01610150
Observed Flight Rules
Aug-14 @ 12:53 UTC (51 minutes ago) Instrument Flight Rules
Wind Visibility Clouds Conditions
40° at 6 knots 5 miles
  • Overcast at 200' AGL
  • Mist
Temperatures Readings
Current 16°C / 61°F
Dewpoint 15°C / 59°F
Humidity 94%
Altimeter 30.06" Hg
Pressure 1013.2 hPa
Elevation 1279
METAR KITR 141253Z AUTO 04006KT 5SM BR OVC002 16/15 A3006 RMK AO2 SLP132 T01610150
Observed Flight Rules
Aug-14 @ 12:53 UTC
(51 minutes ago)
LIFR
Wind Visibility
40° at 6 knots 5 miles
Clouds
  • Overcast at 200' AGL
Conditions
  • Mist
Temperature Dewpoint
16°C / 61°F 15°C / 59°F
Humidity Altimeter Pressure
94% 30.06" Hg 1013.2 hPa